sensor_id;sensor_type;location;lat;lon;timestamp;P1;durP1;ratioP1;P2;durP2;ratioP2
12912;SDS011;6524;51.368;11.984;2023-11-19T00:01:17;4.68;;;3.90;;
12912;SDS011;6524;51.368;11.984;2023-11-19T00:06:18;3.70;;;3.30;;
12912;SDS011;6524;51.368;11.984;2023-11-19T00:11:18;4.53;;;3.30;;
12912;SDS011;6524;51.368;11.984;2023-11-19T00:16:18;3.10;;;2.80;;
12912;SDS011;6524;51.368;11.984;2023-11-19T00:21:19;3.50;;;3.20;;
12912;SDS011;6524;51.368;11.984;2023-11-19T00:26:19;3.88;;;3.00;;
12912;SDS011;6524;51.368;11.984;2023-11-19T00:31:20;4.20;;;3.80;;
12912;SDS011;6524;51.368;11.984;2023-11-19T00:36:20;4.95;;;4.03;;
12912;SDS011;6524;51.368;11.984;2023-11-19T00:41:21;5.38;;;4.47;;
12912;SDS011;6524;51.368;11.984;2023-11-19T00:46:22;5.33;;;4.23;;
12912;SDS011;6524;51.368;11.984;2023-11-19T00:51:22;4.13;;;3.47;;
12912;SDS011;6524;51.368;11.984;2023-11-19T00:56:23;5.30;;;3.90;;
12912;SDS011;6524;51.368;11.984;2023-11-19T05:02:35;2.55;;;1.80;;
12912;SDS011;6524;51.368;11.984;2023-11-19T05:07:35;2.75;;;2.30;;
12912;SDS011;6524;51.368;11.984;2023-11-19T05:12:36;3.67;;;3.38;;
12912;SDS011;6524;51.368;11.984;2023-11-19T05:17:36;1.70;;;1.60;;
12912;SDS011;6524;51.368;11.984;2023-11-19T05:22:37;0.90;;;0.90;;
12912;SDS011;6524;51.368;11.984;2023-11-19T05:27:37;2.85;;;2.60;;
12912;SDS011;6524;51.368;11.984;2023-11-19T05:32:38;6.30;;;5.30;;
12912;SDS011;6524;51.368;11.984;2023-11-19T05:37:38;5.60;;;4.85;;
12912;SDS011;6524;51.368;11.984;2023-11-19T05:42:39;3.08;;;2.78;;
12912;SDS011;6524;51.368;11.984;2023-11-19T05:47:40;2.67;;;2.30;;
12912;SDS011;6524;51.368;11.984;2023-11-19T05:52:41;1.33;;;1.20;;
12912;SDS011;6524;51.368;11.984;2023-11-19T05:57:41;0.88;;;0.80;;
12912;SDS011;6524;51.368;11.984;2023-11-19T06:02:42;1.80;;;1.33;;
12912;SDS011;6524;51.368;11.984;2023-11-19T06:07:42;3.20;;;2.53;;
12912;SDS011;6524;51.368;11.984;2023-11-19T06:12:43;0.82;;;0.52;;
12912;SDS011;6524;51.368;11.984;2023-11-19T06:17:46;1.05;;;0.80;;
12912;SDS011;6524;51.368;11.984;2023-11-19T06:22:47;0.60;;;0.60;;
12912;SDS011;6524;51.368;11.984;2023-11-19T06:27:48;0.60;;;0.60;;
12912;SDS011;6524;51.368;11.984;2023-11-19T06:32:49;0.68;;;0.60;;
12912;SDS011;6524;51.368;11.984;2023-11-19T06:37:49;0.90;;;0.90;;
12912;SDS011;6524;51.368;11.984;2023-11-19T06:42:49;1.00;;;0.63;;
12912;SDS011;6524;51.368;11.984;2023-11-19T06:47:52;0.50;;;0.50;;
12912;SDS011;6524;51.368;11.984;2023-11-19T06:52:52;0.63;;;0.63;;
12912;SDS011;6524;51.368;11.984;2023-11-19T06:57:53;0.82;;;0.82;;
12912;SDS011;6524;51.368;11.984;2023-11-19T07:02:53;0.57;;;0.57;;
12912;SDS011;6524;51.368;11.984;2023-11-19T07:07:53;1.10;;;1.00;;
12912;SDS011;6524;51.368;11.984;2023-11-19T07:12:56;1.00;;;0.77;;
12912;SDS011;6524;51.368;11.984;2023-11-19T07:17:57;2.20;;;1.10;;
12912;SDS011;6524;51.368;11.984;2023-11-19T07:22:59;1.75;;;1.35;;
12912;SDS011;6524;51.368;11.984;2023-11-19T07:27:59;1.15;;;0.80;;
12912;SDS011;6524;51.368;11.984;2023-11-19T07:33:00;1.20;;;1.10;;
12912;SDS011;6524;51.368;11.984;2023-11-19T07:38:00;0.95;;;0.95;;
12912;SDS011;6524;51.368;11.984;2023-11-19T07:43:00;3.50;;;2.22;;
12912;SDS011;6524;51.368;11.984;2023-11-19T07:48:01;1.92;;;1.70;;
12912;SDS011;6524;51.368;11.984;2023-11-19T07:53:01;1.52;;;1.10;;
12912;SDS011;6524;51.368;11.984;2023-11-19T07:58:04;1.42;;;1.10;;
12912;SDS011;6524;51.368;11.984;2023-11-19T08:03:04;2.13;;;1.30;;
12912;SDS011;6524;51.368;11.984;2023-11-19T08:08:05;1.65;;;1.20;;
12912;SDS011;6524;51.368;11.984;2023-11-19T08:13:06;3.55;;;2.33;;
12912;SDS011;6524;51.368;11.984;2023-11-19T08:18:07;1.92;;;1.35;;
12912;SDS011;6524;51.368;11.984;2023-11-19T08:23:09;1.25;;;1.15;;
12912;SDS011;6524;51.368;11.984;2023-11-19T08:28:09;2.85;;;1.25;;
12912;SDS011;6524;51.368;11.984;2023-11-19T08:33:10;1.90;;;1.30;;
12912;SDS011;6524;51.368;11.984;2023-11-19T08:38:10;1.90;;;1.30;;
12912;SDS011;6524;51.368;11.984;2023-11-19T08:43:11;1.70;;;1.30;;
12912;SDS011;6524;51.368;11.984;2023-11-19T08:48:11;2.00;;;1.27;;
12912;SDS011;6524;51.368;11.984;2023-11-19T08:53:12;1.75;;;1.40;;
12912;SDS011;6524;51.368;11.984;2023-11-19T08:58:12;2.60;;;1.83;;
12912;SDS011;6524;51.368;11.984;2023-11-19T09:03:13;4.32;;;2.58;;
12912;SDS011;6524;51.368;11.984;2023-11-19T09:08:13;3.20;;;2.00;;
12912;SDS011;6524;51.368;11.984;2023-11-19T09:13:13;1.83;;;1.50;;
12912;SDS011;6524;51.368;11.984;2023-11-19T09:18:14;3.22;;;1.80;;
12912;SDS011;6524;51.368;11.984;2023-11-19T09:23:14;1.55;;;1.25;;
12912;SDS011;6524;51.368;11.984;2023-11-19T09:28:14;2.38;;;1.38;;
12912;SDS011;6524;51.368;11.984;2023-11-19T09:33:15;3.28;;;2.50;;
12912;SDS011;6524;51.368;11.984;2023-11-19T09:38:15;3.28;;;1.60;;
12912;SDS011;6524;51.368;11.984;2023-11-19T09:43:15;2.13;;;1.63;;
12912;SDS011;6524;51.368;11.984;2023-11-19T09:48:17;2.97;;;2.28;;
12912;SDS011;6524;51.368;11.984;2023-11-19T09:53:18;2.05;;;1.50;;
12912;SDS011;6524;51.368;11.984;2023-11-19T09:58:20;2.55;;;1.52;;
12912;SDS011;6524;51.368;11.984;2023-11-19T10:03:20;2.13;;;1.63;;
12912;SDS011;6524;51.368;11.984;2023-11-19T10:08:24;3.55;;;1.70;;
12912;SDS011;6524;51.368;11.984;2023-11-19T10:13:28;3.58;;;2.25;;
12912;SDS011;6524;51.368;11.984;2023-11-19T10:18:29;4.97;;;2.35;;
12912;SDS011;6524;51.368;11.984;2023-11-19T10:23:30;2.50;;;1.55;;
12912;SDS011;6524;51.368;11.984;2023-11-19T10:28:40;2.75;;;1.75;;
12912;SDS011;6524;51.368;11.984;2023-11-19T10:33:45;4.72;;;1.75;;
12912;SDS011;6524;51.368;11.984;2023-11-19T10:38:53;4.53;;;1.77;;
12912;SDS011;6524;51.368;11.984;2023-11-19T10:43:54;3.03;;;1.58;;
12912;SDS011;6524;51.368;11.984;2023-11-19T10:48:55;2.65;;;1.63;;
12912;SDS011;6524;51.368;11.984;2023-11-19T10:53:55;4.97;;;1.83;;
12912;SDS011;6524;51.368;11.984;2023-11-19T10:59:01;6.40;;;2.10;;
12912;SDS011;6524;51.368;11.984;2023-11-19T11:04:03;8.20;;;2.50;;
12912;SDS011;6524;51.368;11.984;2023-11-19T11:09:07;6.70;;;2.20;;
12912;SDS011;6524;51.368;11.984;2023-11-19T11:14:12;6.90;;;2.53;;
12912;SDS011;6524;51.368;11.984;2023-11-19T11:19:16;6.57;;;2.55;;
12912;SDS011;6524;51.368;11.984;2023-11-19T11:29:44;6.05;;;2.67;;
12912;SDS011;6524;51.368;11.984;2023-11-19T11:34:58;7.13;;;2.85;;
12912;SDS011;6524;51.368;11.984;2023-11-19T11:40:13;7.90;;;2.63;;
12912;SDS011;6524;51.368;11.984;2023-11-19T11:45:18;7.53;;;2.70;;
12912;SDS011;6524;51.368;11.984;2023-11-19T11:50:20;7.18;;;2.90;;
12912;SDS011;6524;51.368;11.984;2023-11-19T11:55:33;9.75;;;2.90;;
12912;SDS011;6524;51.368;11.984;2023-11-19T12:00:40;5.00;;;2.40;;
12912;SDS011;6524;51.368;11.984;2023-11-19T12:05:42;7.45;;;3.03;;
12912;SDS011;6524;51.368;11.984;2023-11-19T12:20:57;8.27;;;3.13;;
12912;SDS011;6524;51.368;11.984;2023-11-19T12:26:00;7.00;;;2.78;;
12912;SDS011;6524;51.368;11.984;2023-11-19T12:31:09;9.80;;;2.75;;
12912;SDS011;6524;51.368;11.984;2023-11-19T12:36:10;8.25;;;3.20;;
12912;SDS011;6524;51.368;11.984;2023-11-19T12:41:10;10.10;;;2.97;;
12912;SDS011;6524;51.368;11.984;2023-11-19T12:46:18;9.10;;;3.22;;
12912;SDS011;6524;51.368;11.984;2023-11-19T12:51:22;9.75;;;3.67;;
12912;SDS011;6524;51.368;11.984;2023-11-19T12:56:31;8.70;;;3.20;;
12912;SDS011;6524;51.368;11.984;2023-11-19T13:01:34;5.68;;;3.15;;
12912;SDS011;6524;51.368;11.984;2023-11-19T13:06:35;6.53;;;2.95;;
12912;SDS011;6524;51.368;11.984;2023-11-19T13:11:45;7.70;;;2.70;;
12912;SDS011;6524;51.368;11.984;2023-11-19T13:16:46;8.98;;;3.03;;
12912;SDS011;6524;51.368;11.984;2023-11-19T13:21:47;7.72;;;3.63;;
12912;SDS011;6524;51.368;11.984;2023-11-19T13:26:48;8.02;;;2.75;;
12912;SDS011;6524;51.368;11.984;2023-11-19T13:31:48;8.32;;;2.97;;
12912;SDS011;6524;51.368;11.984;2023-11-19T13:36:50;10.35;;;3.45;;
12912;SDS011;6524;51.368;11.984;2023-11-19T13:41:50;9.38;;;3.10;;
12912;SDS011;6524;51.368;11.984;2023-11-19T13:46:50;7.90;;;2.88;;
12912;SDS011;6524;51.368;11.984;2023-11-19T13:51:51;9.23;;;3.30;;
12912;SDS011;6524;51.368;11.984;2023-11-19T13:56:57;8.63;;;3.10;;
12912;SDS011;6524;51.368;11.984;2023-11-19T14:01:58;6.93;;;3.03;;
12912;SDS011;6524;51.368;11.984;2023-11-19T14:06:58;9.07;;;3.00;;
12912;SDS011;6524;51.368;11.984;2023-11-19T14:11:59;8.48;;;3.13;;
12912;SDS011;6524;51.368;11.984;2023-11-19T14:16:59;8.88;;;3.15;;
12912;SDS011;6524;51.368;11.984;2023-11-19T14:22:01;9.18;;;3.03;;
12912;SDS011;6524;51.368;11.984;2023-11-19T14:27:01;10.93;;;3.22;;
12912;SDS011;6524;51.368;11.984;2023-11-19T14:32:02;8.00;;;3.05;;
12912;SDS011;6524;51.368;11.984;2023-11-19T14:37:04;8.75;;;3.03;;
12912;SDS011;6524;51.368;11.984;2023-11-19T14:42:04;9.73;;;2.75;;
12912;SDS011;6524;51.368;11.984;2023-11-19T14:47:05;8.52;;;3.40;;
12912;SDS011;6524;51.368;11.984;2023-11-19T14:52:06;10.48;;;3.25;;
12912;SDS011;6524;51.368;11.984;2023-11-19T14:57:06;6.65;;;2.70;;
12912;SDS011;6524;51.368;11.984;2023-11-19T15:02:10;9.18;;;3.22;;
12912;SDS011;6524;51.368;11.984;2023-11-19T15:07:11;8.60;;;2.85;;
12912;SDS011;6524;51.368;11.984;2023-11-19T15:12:12;7.35;;;3.03;;
12912;SDS011;6524;51.368;11.984;2023-11-19T15:17:12;8.93;;;3.72;;
12912;SDS011;6524;51.368;11.984;2023-11-19T15:22:13;9.95;;;4.43;;
12912;SDS011;6524;51.368;11.984;2023-11-19T15:27:13;7.95;;;3.20;;
12912;SDS011;6524;51.368;11.984;2023-11-19T15:32:14;9.50;;;2.85;;
12912;SDS011;6524;51.368;11.984;2023-11-19T15:37:14;8.32;;;3.53;;
12912;SDS011;6524;51.368;11.984;2023-11-19T15:42:15;8.43;;;3.28;;
12912;SDS011;6524;51.368;11.984;2023-11-19T15:47:15;9.05;;;3.40;;
12912;SDS011;6524;51.368;11.984;2023-11-19T15:52:16;9.60;;;3.33;;
12912;SDS011;6524;51.368;11.984;2023-11-19T15:57:16;11.70;;;3.92;;
12912;SDS011;6524;51.368;11.984;2023-11-19T16:02:17;10.35;;;3.83;;
12912;SDS011;6524;51.368;11.984;2023-11-19T16:07:18;11.48;;;3.55;;
12912;SDS011;6524;51.368;11.984;2023-11-19T16:12:21;11.05;;;3.40;;
12912;SDS011;6524;51.368;11.984;2023-11-19T16:17:22;14.00;;;3.75;;
12912;SDS011;6524;51.368;11.984;2023-11-19T16:22:23;12.10;;;3.47;;
12912;SDS011;6524;51.368;11.984;2023-11-19T16:27:25;10.30;;;3.60;;
12912;SDS011;6524;51.368;11.984;2023-11-19T16:32:25;12.57;;;3.40;;
12912;SDS011;6524;51.368;11.984;2023-11-19T16:37:26;9.38;;;4.15;;
12912;SDS011;6524;51.368;11.984;2023-11-19T16:42:26;10.27;;;3.78;;
12912;SDS011;6524;51.368;11.984;2023-11-19T16:47:27;6.70;;;2.60;;
12912;SDS011;6524;51.368;11.984;2023-11-19T16:52:27;9.68;;;2.95;;
12912;SDS011;6524;51.368;11.984;2023-11-19T16:57:28;9.00;;;2.95;;
12912;SDS011;6524;51.368;11.984;2023-11-19T17:02:28;6.40;;;2.83;;
12912;SDS011;6524;51.368;11.984;2023-11-19T17:07:30;7.10;;;2.50;;
12912;SDS011;6524;51.368;11.984;2023-11-19T17:12:30;8.20;;;3.90;;
12912;SDS011;6524;51.368;11.984;2023-11-19T17:17:34;7.85;;;2.58;;
12912;SDS011;6524;51.368;11.984;2023-11-19T17:22:38;8.40;;;3.30;;
12912;SDS011;6524;51.368;11.984;2023-11-19T17:27:40;8.40;;;3.35;;
12912;SDS011;6524;51.368;11.984;2023-11-19T17:32:42;10.13;;;3.22;;
12912;SDS011;6524;51.368;11.984;2023-11-19T17:37:42;12.35;;;3.70;;
12912;SDS011;6524;51.368;11.984;2023-11-19T17:42:43;9.77;;;3.15;;
12912;SDS011;6524;51.368;11.984;2023-11-19T17:47:44;10.88;;;4.40;;
12912;SDS011;6524;51.368;11.984;2023-11-19T17:52:44;11.07;;;3.40;;
12912;SDS011;6524;51.368;11.984;2023-11-19T17:57:45;10.55;;;3.20;;
12912;SDS011;6524;51.368;11.984;2023-11-19T18:02:46;11.05;;;3.38;;
12912;SDS011;6524;51.368;11.984;2023-11-19T18:07:51;12.27;;;3.75;;
12912;SDS011;6524;51.368;11.984;2023-11-19T18:12:52;8.57;;;3.10;;
12912;SDS011;6524;51.368;11.984;2023-11-19T18:17:53;12.77;;;3.25;;
12912;SDS011;6524;51.368;11.984;2023-11-19T18:22:53;8.93;;;3.22;;
12912;SDS011;6524;51.368;11.984;2023-11-19T18:27:54;12.75;;;3.33;;
12912;SDS011;6524;51.368;11.984;2023-11-19T18:32:54;8.70;;;2.80;;
12912;SDS011;6524;51.368;11.984;2023-11-19T18:37:55;10.07;;;3.33;;
12912;SDS011;6524;51.368;11.984;2023-11-19T18:42:55;10.20;;;3.03;;
12912;SDS011;6524;51.368;11.984;2023-11-19T18:47:56;9.38;;;3.50;;
12912;SDS011;6524;51.368;11.984;2023-11-19T18:52:56;11.23;;;2.60;;
12912;SDS011;6524;51.368;11.984;2023-11-19T18:57:56;7.60;;;2.97;;
12912;SDS011;6524;51.368;11.984;2023-11-19T19:02:58;7.38;;;2.72;;
12912;SDS011;6524;51.368;11.984;2023-11-19T19:07:59;5.90;;;2.50;;
12912;SDS011;6524;51.368;11.984;2023-11-19T19:12:59;6.60;;;2.40;;
12912;SDS011;6524;51.368;11.984;2023-11-19T19:18:00;6.90;;;2.50;;
12912;SDS011;6524;51.368;11.984;2023-11-19T19:23:01;9.38;;;3.22;;
12912;SDS011;6524;51.368;11.984;2023-11-19T19:28:02;5.57;;;2.47;;
12912;SDS011;6524;51.368;11.984;2023-11-19T19:33:02;5.72;;;2.30;;
12912;SDS011;6524;51.368;11.984;2023-11-19T19:38:03;4.30;;;2.10;;
12912;SDS011;6524;51.368;11.984;2023-11-19T19:43:03;4.97;;;2.10;;
12912;SDS011;6524;51.368;11.984;2023-11-19T19:48:04;7.05;;;2.30;;
12912;SDS011;6524;51.368;11.984;2023-11-19T19:53:05;3.70;;;1.92;;
12912;SDS011;6524;51.368;11.984;2023-11-19T19:58:06;4.80;;;1.95;;
12912;SDS011;6524;51.368;11.984;2023-11-19T20:03:08;8.05;;;2.58;;
12912;SDS011;6524;51.368;11.984;2023-11-19T20:08:08;5.40;;;2.13;;
12912;SDS011;6524;51.368;11.984;2023-11-19T20:13:08;7.18;;;2.40;;
12912;SDS011;6524;51.368;11.984;2023-11-19T20:18:09;7.55;;;2.22;;
12912;SDS011;6524;51.368;11.984;2023-11-19T20:23:12;6.80;;;2.45;;
12912;SDS011;6524;51.368;11.984;2023-11-19T20:28:12;7.93;;;2.72;;
12912;SDS011;6524;51.368;11.984;2023-11-19T20:33:13;7.10;;;2.83;;
12912;SDS011;6524;51.368;11.984;2023-11-19T20:38:13;7.97;;;2.70;;
12912;SDS011;6524;51.368;11.984;2023-11-19T20:43:14;8.57;;;2.70;;
12912;SDS011;6524;51.368;11.984;2023-11-19T20:48:14;7.70;;;2.70;;
12912;SDS011;6524;51.368;11.984;2023-11-19T20:53:15;7.28;;;2.67;;
12912;SDS011;6524;51.368;11.984;2023-11-19T20:58:15;6.82;;;2.47;;
12912;SDS011;6524;51.368;11.984;2023-11-19T21:03:16;8.85;;;2.80;;
12912;SDS011;6524;51.368;11.984;2023-11-19T21:08:18;10.52;;;2.95;;
12912;SDS011;6524;51.368;11.984;2023-11-19T21:13:18;8.93;;;3.00;;
12912;SDS011;6524;51.368;11.984;2023-11-19T21:18:19;7.38;;;2.85;;
12912;SDS011;6524;51.368;11.984;2023-11-19T21:23:20;7.57;;;2.80;;
12912;SDS011;6524;51.368;11.984;2023-11-19T21:28:25;10.13;;;2.80;;
12912;SDS011;6524;51.368;11.984;2023-11-19T21:33:29;10.82;;;2.63;;
12912;SDS011;6524;51.368;11.984;2023-11-19T21:38:30;8.65;;;2.50;;
12912;SDS011;6524;51.368;11.984;2023-11-19T21:43:31;9.30;;;3.00;;
12912;SDS011;6524;51.368;11.984;2023-11-19T21:48:33;6.63;;;2.38;;
12912;SDS011;6524;51.368;11.984;2023-11-19T21:53:33;9.07;;;2.95;;
12912;SDS011;6524;51.368;11.984;2023-11-19T21:58:34;8.43;;;2.80;;
12912;SDS011;6524;51.368;11.984;2023-11-19T22:03:34;8.27;;;2.70;;
12912;SDS011;6524;51.368;11.984;2023-11-19T22:08:36;4.90;;;2.47;;
12912;SDS011;6524;51.368;11.984;2023-11-19T22:13:40;6.40;;;2.70;;
12912;SDS011;6524;51.368;11.984;2023-11-19T22:18:41;9.80;;;2.75;;
12912;SDS011;6524;51.368;11.984;2023-11-19T22:23:42;9.68;;;2.60;;
12912;SDS011;6524;51.368;11.984;2023-11-19T22:28:43;10.55;;;2.95;;
12912;SDS011;6524;51.368;11.984;2023-11-19T22:33:43;7.03;;;2.80;;
12912;SDS011;6524;51.368;11.984;2023-11-19T22:38:44;8.13;;;2.78;;
12912;SDS011;6524;51.368;11.984;2023-11-19T22:43:48;12.02;;;2.88;;
12912;SDS011;6524;51.368;11.984;2023-11-19T22:48:49;7.57;;;3.10;;
12912;SDS011;6524;51.368;11.984;2023-11-19T22:53:49;8.93;;;2.92;;
12912;SDS011;6524;51.368;11.984;2023-11-19T22:58:50;7.18;;;2.80;;
12912;SDS011;6524;51.368;11.984;2023-11-19T23:03:51;9.50;;;3.00;;
12912;SDS011;6524;51.368;11.984;2023-11-19T23:08:51;7.28;;;2.85;;
12912;SDS011;6524;51.368;11.984;2023-11-19T23:13:52;8.77;;;3.13;;
12912;SDS011;6524;51.368;11.984;2023-11-19T23:18:52;8.98;;;3.05;;
12912;SDS011;6524;51.368;11.984;2023-11-19T23:23:53;6.93;;;2.60;;
12912;SDS011;6524;51.368;11.984;2023-11-19T23:28:53;10.43;;;4.32;;
12912;SDS011;6524;51.368;11.984;2023-11-19T23:33:53;9.23;;;2.72;;
12912;SDS011;6524;51.368;11.984;2023-11-19T23:38:54;8.80;;;3.22;;
12912;SDS011;6524;51.368;11.984;2023-11-19T23:43:55;8.20;;;2.58;;
12912;SDS011;6524;51.368;11.984;2023-11-19T23:48:55;8.30;;;3.13;;
12912;SDS011;6524;51.368;11.984;2023-11-19T23:53:56;7.85;;;2.65;;
